Latest Weather Observations for Redcliffe

IDQ60801

Issued at 1:02 pm EST Friday 20 October 2017 (issued every 30 minutes, with the page automatically refreshed every 10 minutes)

About weather observations | Map of weather stations | Latest weather observations for QLD | Other Formats
Station Details ID: 040958 Name: REDCLIFFE Lat: -27.22 Lon: 153.09 Height: 12.6 m
Data from the previous 72 hours. | See also: Recent months at Redcliffe
Date/Time
EST
Temp
°C
App
Temp
°C
Dew
Point
°C
Rel
Hum
%
Delta-T
°C
Wind Press
QNH
hPa
Press
MSL
hPa
Rain since
9am
mm
Dir  Spd
km/h
Gust
km/h
Spd
kts
Gust
kts
20/01:00pm 24.5 22.5 16.5 61 4.9 ENE 22 26 12 14 1019.2 1019.1 0.0
20/12:30pm 24.1 21.7 15.3 58 5.3 ENE 22 26 12 14 1019.6 1019.5 0.0
20/12:00pm 24.3 22.1 15.0 56 5.5 NE 20 26 11 14 1019.9 1019.8 0.0
20/11:30am 24.8 23.3 14.3 52 6.2 NE 15 19 8 10 1020.5 1020.4 0.0
20/11:00am 24.0 22.7 14.7 56 5.5 NE 15 19 8 10 1020.9 1020.8 0.0
20/10:30am 24.3 24.1 16.6 62 4.7 ENE 13 15 7 8 1021.3 1021.2 0.0
20/10:00am 23.5 23.7 15.8 62 4.6 E 9 11 5 6 1021.5 1021.4 0.0
20/09:30am 22.8 22.7 15.9 65 4.2 E 11 13 6 7 1021.6 1021.5 0.0
20/09:00am 22.9 22.7 15.7 64 4.3 E 11 13 6 7 1021.8 1021.7 0.2
20/08:30am 23.3 22.9 16.1 64 4.4 E 13 15 7 8 1021.9 1021.8 0.2
20/08:00am 22.6 21.9 16.4 68 3.8 E 15 19 8 10 1021.8 1021.7 0.2
20/07:30am 22.1 21.2 15.9 68 3.7 E 15 17 8 9 1021.8 1021.7 0.2
20/07:00am 21.7 20.5 16.2 71 3.3 E 17 19 9 10 1021.8 1021.7 0.2
20/06:30am 21.7 21.2 16.0 70 3.4 E 13 15 7 8 1021.8 1021.7 0.2
20/06:00am 20.9 19.8 15.4 71 3.3 E 15 17 8 9 1021.7 1021.6 0.2
20/05:30am 20.4 19.3 15.2 72 3.1 E 15 17 8 9 1021.4 1021.3 0.2
20/05:00am 20.1 18.7 15.5 75 2.7 E 17 20 9 11 1021.2 1021.1 0.2
20/04:30am 20.0 18.2 15.6 76 2.6 ENE 19 20 10 11 1021.1 1021.0 0.2
20/04:00am 20.1 19.1 15.7 76 2.6 ENE 15 17 8 9 1020.8 1020.7 0.2
20/03:30am 20.4 18.4 15.6 74 2.9 ENE 20 24 11 13 1020.9 1020.8 0.2
20/03:00am 20.4 18.4 15.4 73 3.0 ENE 20 24 11 13 1021.0 1020.9 0.2
20/02:30am 20.7 18.0 15.7 73 3.0 E 24 28 13 15 1021.1 1021.0 0.2
20/02:00am 20.7 18.0 15.5 72 3.1 ENE 24 26 13 14 1021.5 1021.4 0.2
20/01:30am 20.7 18.9 15.9 74 2.9 ENE 20 24 11 13 1021.9 1021.8 0.2
20/01:00am 20.7 19.3 15.5 72 3.1 ENE 17 20 9 11 1022.3 1022.2 0.2
20/12:30am 20.7 18.7 15.0 70 3.4 ENE 19 22 10 12 1022.8 1022.7 0.2
20/12:00am 20.8 18.7 14.7 68 3.6 NE 19 22 10 12 1023.2 1023.1 0.2
 
Date/Time
EST
Temp
°C
App
Temp
°C
Dew
Point
°C
Rel
Hum
%
Delta-T
°C
Wind Press
QNH
hPa
Press
MSL
hPa
Rain since
9am
mm
Dir  Spd
km/h
Gust
km/h
Spd
kts
Gust
kts
19/11:30pm 21.2 19.3 15.3 69 3.5 ENE 19 22 10 12 1023.6 1023.5 0.2
19/11:00pm 21.3 19.3 15.4 69 3.5 ENE 20 24 11 13 1024.1 1024.0 0.2
19/10:30pm 21.4 18.8 15.9 71 3.3 E 24 28 13 15 1024.4 1024.3 0.2
19/10:00pm 21.1 19.0 16.3 74 2.9 ENE 22 28 12 15 1024.6 1024.5 0.2
19/09:30pm 21.0 19.7 15.8 72 3.1 ENE 17 24 9 13 1024.7 1024.6 0.2
19/09:00pm 21.5 18.9 15.8 70 3.4 E 24 30 13 16 1024.7 1024.6 0.2
19/08:30pm 21.2 19.1 14.6 66 3.9 ENE 19 24 10 13 1024.6 1024.5 0.2
19/08:00pm 21.4 18.6 15.3 68 3.6 E 24 28 13 15 1024.4 1024.3 0.2
19/07:30pm 21.2 18.3 16.0 72 3.1 E 26 30 14 16 1024.5 1024.4 0.2
19/07:00pm 21.0 18.1 16.0 73 3.0 E 26 30 14 16 1024.3 1024.2 0.2
19/06:30pm 21.6 18.4 15.2 67 3.8 E 26 32 14 17 1024.0 1023.9 0.2
19/06:00pm 21.7 19.0 15.5 68 3.7 E 24 28 13 15 1023.8 1023.7 0.2
19/05:30pm 21.7 18.4 15.1 66 3.9 E 26 30 14 16 1023.6 1023.5 0.2
19/05:00pm 22.1 19.0 15.5 66 3.9 E 26 30 14 16 1023.3 1023.2 0.2
19/04:30pm 22.3 19.1 15.2 64 4.2 E 26 30 14 16 1023.0 1022.9 0.2
19/04:00pm 22.3 19.5 15.4 65 4.1 E 24 30 13 16 1023.1 1023.0 0.2
19/03:30pm 22.1 20.8 15.7 67 3.8 E 17 20 9 11 1023.2 1023.1 0.2
19/03:00pm 22.0 20.3 15.8 68 3.7 E 19 22 10 12 1023.3 1023.2 0.2
19/02:30pm 22.0 17.2 15.6 67 3.8 E 35 39 19 21 1023.6 1023.5 0.2
19/02:00pm 23.0 20.4 16.8 68 3.8 ESE 26 32 14 17 1023.7 1023.6 0.2
19/01:30pm 22.9 19.7 16.2 66 4.1 ESE 28 32 15 17 1024.1 1024.0 0.2
19/01:00pm 23.2 20.1 16.5 66 4.1 ESE 28 33 15 18 1024.4 1024.3 0.2
19/12:30pm 23.1 19.9 15.2 61 4.7 ESE 26 30 14 16 1024.5 1024.4 0.2
19/12:00pm 22.9 19.1 15.7 64 4.3 E 30 35 16 19 1024.7 1024.6 0.2
19/11:30am 23.4 20.2 16.4 64 4.3 ESE 28 32 15 17 1025.0 1024.9 0.2
19/11:00am 22.8 19.1 16.1 66 4.0 ESE 30 35 16 19 1025.2 1025.1 0.2
19/10:30am 22.0 18.0 16.3 70 3.5 ESE 32 37 17 20 1025.3 1025.2 0.0
19/10:00am 23.0 19.2 15.8 64 4.3 E 30 35 16 19 1025.5 1025.4 0.0
19/09:30am 22.3 20.5 17.0 72 3.2 ESE 22 28 12 15 1025.7 1025.6 0.0
19/09:00am 21.1 18.3 16.3 74 2.9 ESE 26 35 14 19 1026.1 1026.0 1.6
19/08:30am 19.9 14.6 15.3 75 2.7 ESE 37 48 20 26 1026.1 1026.0 1.6
19/08:00am 21.7 17.4 15.5 68 3.7 E 32 35 17 19 1025.9 1025.8 1.6
19/07:30am 22.1 17.8 16.8 72 3.2 E 35 43 19 23 1025.6 1025.5 1.6
19/07:00am 22.0 17.2 15.6 67 3.8 E 35 39 19 21 1025.3 1025.2 1.6
19/06:30am 22.0 17.7 15.4 66 3.9 ESE 32 37 17 20 1025.1 1025.0 1.6
19/06:00am 21.3 16.8 14.9 67 3.8 E 32 37 17 20 1025.0 1024.9 1.6
19/05:30am 21.0 16.4 14.6 67 3.7 ESE 32 37 17 20 1024.8 1024.7 1.6
19/05:00am 21.0 16.3 14.9 68 3.6 ESE 33 37 18 20 1024.5 1024.4 1.6
19/04:30am 20.9 16.3 14.5 67 3.7 E 32 37 17 20 1024.4 1024.3 1.6
19/04:00am 20.8 16.3 14.9 69 3.5 ESE 32 37 17 20 1024.2 1024.1 1.6
19/03:30am 20.9 16.3 14.5 67 3.7 E 32 37 17 20 1024.0 1023.9 1.6
19/03:00am 20.8 16.1 14.9 69 3.5 E 33 39 18 21 1023.9 1023.8 1.6
19/02:30am 20.9 16.5 15.2 70 3.4 ESE 32 39 17 21 1024.1 1024.0 1.6
19/02:00am 20.8 16.3 15.4 71 3.2 E 33 37 18 20 1024.2 1024.1 1.6
19/01:30am 21.0 16.6 15.1 69 3.5 E 32 39 17 21 1024.4 1024.3 1.6
19/01:00am 21.2 16.7 14.8 67 3.7 E 32 35 17 19 1024.6 1024.5 1.6
19/12:30am 21.2 16.3 15.3 69 3.5 E 35 41 19 22 1024.8 1024.7 1.6
19/12:00am 21.2 15.9 15.3 69 3.5 E 37 44 20 24 1025.1 1025.0 1.6
 
Date/Time
EST
Temp
°C
App
Temp
°C
Dew
Point
°C
Rel
Hum
%
Delta-T
°C
Wind Press
QNH
hPa
Press
MSL
hPa
Rain since
9am
mm
Dir  Spd
km/h
Gust
km/h
Spd
kts
Gust
kts
18/11:30pm 21.2 16.7 15.5 70 3.4 E 33 37 18 20 1025.4 1025.3 1.6
18/11:00pm 21.2 16.7 15.5 70 3.4 E 33 41 18 22 1025.7 1025.6 1.6
18/10:30pm 21.3 16.8 15.4 69 3.5 E 33 39 18 21 1025.9 1025.8 1.6
18/10:00pm 21.3 16.4 15.4 69 3.5 E 35 41 19 22 1026.0 1025.9 1.6
18/09:30pm 21.1 16.2 15.2 69 3.5 E 35 43 19 23 1026.0 1025.9 1.6
18/09:00pm 20.8 15.4 14.9 69 3.5 E 37 43 20 23 1026.0 1025.9 1.6
18/08:30pm 21.2 15.6 15.5 70 3.4 E 39 48 21 26 1025.6 1025.5 1.6
18/08:00pm 20.8 16.2 16.2 75 2.8 ESE 35 39 19 21 1025.5 1025.4 1.6
18/07:30pm 20.5 15.4 15.9 75 2.7 ESE 37 46 20 25 1025.2 1025.1 1.6
18/07:00pm 20.8 14.6 16.0 74 2.9 ESE 43 52 23 28 1024.8 1024.7 1.6
18/06:30pm 20.6 15.3 16.2 76 2.6 ESE 39 46 21 25 1024.3 1024.2 1.6
18/06:00pm 20.2 15.2 16.2 78 2.4 ESE 37 44 20 24 1024.1 1024.0 1.6
18/05:30pm 21.1 16.0 15.9 72 3.1 ESE 37 44 20 24 1023.6 1023.5 1.4
18/05:09pm 21.1 16.6 16.5 75 2.8 ESE 35 41 19 22 1023.5 1023.4 1.2
18/05:00pm 21.3 17.2 16.5 74 2.9 SE 33 43 18 23 1023.4 1023.3 1.2
18/04:30pm 20.6 16.7 16.4 77 2.5 SE 32 35 17 19 1023.3 1023.2 1.2
18/04:00pm 20.2 16.5 17.4 84 1.7 SE 33 39 18 21 1023.3 1023.2 1.2
18/03:30pm 21.0 15.7 16.4 75 2.8 SE 39 44 21 24 1023.0 1022.9 1.2
18/03:00pm 21.7 16.4 16.2 71 3.3 ESE 39 48 21 26 1023.1 1023.0 1.2
18/02:30pm 21.8 16.8 17.0 74 2.9 ESE 39 46 21 25 1023.3 1023.2 1.2
18/02:00pm 21.3 16.4 17.3 78 2.4 ESE 39 50 21 27 1023.5 1023.4 1.2
18/01:45pm 22.2 18.1 17.3 74 3.0 ESE 35 48 19 26 1023.4 1023.3 0.2
18/01:30pm 21.6 17.8 18.0 80 2.2 SE 35 41 19 22 1023.7 1023.6 0.2
18/01:00pm 20.5 17.2 17.9 85 1.6 SE 32 39 17 21 1024.0 1023.9 0.2
18/12:30pm 19.9 15.4 17.3 85 1.6 SE 37 44 20 24 1024.4 1024.3 0.2
18/12:00pm 20.9 16.0 16.3 75 2.8 SE 37 48 20 26 1024.5 1024.4 0.2
18/11:30am 22.0 16.7 16.3 70 3.5 SE 39 48 21 26 1024.4 1024.3 0.2
18/11:00am 22.6 19.0 17.7 74 3.0 ESE 33 41 18 22 1024.7 1024.6 0.2
18/10:30am 22.8 17.7 16.8 69 3.7 ESE 39 48 21 26 1024.7 1024.6 0.0
18/10:00am 23.3 17.4 16.8 67 4.0 ESE 43 50 23 27 1024.6 1024.5 0.0
18/09:30am 22.5 16.5 16.5 69 3.7 ESE 43 52 23 28 1024.6 1024.5 0.0
18/09:00am 22.6 17.0 16.6 69 3.6 ESE 41 52 22 28 1024.2 1024.1 9.4
18/08:30am 22.2 17.1 16.9 72 3.2 ESE 39 50 21 27 1024.2 1024.1 9.4
18/08:00am 21.9 15.9 16.4 71 3.3 ESE 43 54 23 29 1023.8 1023.7 9.4
18/07:30am 21.5 16.1 16.9 75 2.8 ESE 41 50 22 27 1023.8 1023.7 9.4
18/07:00am 21.6 14.9 16.1 71 3.3 ESE 46 52 25 28 1023.3 1023.2 9.4
18/06:30am 21.2 16.3 17.4 79 2.3 ESE 39 50 21 27 1023.2 1023.1 9.4
18/06:00am 20.3 15.6 17.7 85 1.6 SE 39 48 21 26 1022.8 1022.7 9.4
18/05:30am 19.9 15.8 18.2 90 1.1 ESE 37 46 20 25 1022.4 1022.3 9.4
18/05:00am 19.7 14.7 18.0 90 1.0 SE 41 50 22 27 1022.0 1021.9 9.2
18/04:30am 20.4 15.9 18.2 87 1.4 SE 39 50 21 27 1021.6 1021.5 8.8
18/04:00am 19.7 14.8 18.2 91 0.9 ESE 41 50 22 27 1021.2 1021.1 8.8
18/03:30am 19.8 15.2 18.1 90 1.1 SE 39 46 21 25 1021.1 1021.0 8.0
18/03:00am 19.9 15.3 18.0 89 1.2 SE 39 48 21 26 1021.2 1021.1 8.0
18/02:30am 20.0 14.9 17.8 87 1.4 SE 41 50 22 27 1021.2 1021.1 7.8
18/02:00am 20.2 15.9 17.8 86 1.5 SE 37 50 20 27 1021.4 1021.3 7.6
18/01:30am 19.8 14.8 17.9 89 1.2 ESE 41 52 22 28 1021.5 1021.4 7.6
18/01:00am 19.7 15.1 18.0 90 1.0 ESE 39 50 21 27 1021.8 1021.7 7.4
18/12:30am 19.6 14.1 17.6 88 1.2 ESE 43 54 23 29 1022.2 1022.1 6.0
18/12:00am 20.2 14.8 17.8 86 1.5 ESE 43 50 23 27 1022.5 1022.4 5.8
 
Date/Time
EST
Temp
°C
App
Temp
°C
Dew
Point
°C
Rel
Hum
%
Delta-T
°C
Wind Press
QNH
hPa
Press
MSL
hPa
Rain since
9am
mm
Dir  Spd
km/h
Gust
km/h
Spd
kts
Gust
kts
17/11:30pm 20.3 14.6 17.7 85 1.6 ESE 44 54 24 29 1022.6 1022.5 5.8
17/11:00pm 19.7 15.5 18.0 90 1.0 SE 37 44 20 24 1022.9 1022.8 5.6
17/10:30pm 19.7 14.7 18.0 90 1.0 SE 41 52 22 28 1023.1 1023.0 5.6
17/10:00pm 19.7 15.0 17.8 89 1.2 SE 39 48 21 26 1023.1 1023.0 5.4
17/09:30pm 19.9 14.3 17.5 86 1.5 SE 43 52 23 28 1022.9 1022.8 5.2
17/09:00pm 19.6 13.9 17.7 89 1.2 SE 44 56 24 30 1022.5 1022.4 5.0
17/08:30pm 19.9 12.8 17.1 84 1.7 ESE 50 56 27 30 1022.6 1022.5 4.4
17/08:00pm 20.6 14.6 17.0 80 2.2 SE 44 56 24 30 1022.4 1022.3 4.4
17/07:30pm 20.1 13.9 17.3 84 1.7 ESE 46 59 25 32 1022.4 1022.3 4.4
17/07:00pm 21.1 15.2 17.1 78 2.4 SE 44 54 24 29 1021.9 1021.8 4.4
17/06:30pm 20.8 14.5 17.2 80 2.2 SE 46 54 25 29 1021.6 1021.5 4.4
17/06:00pm 20.9 15.2 17.7 82 2.0 ESE 44 61 24 33 1021.1 1021.0 4.2
17/05:30pm 20.8 14.3 17.6 82 2.0 ESE 48 59 26 32 1020.8 1020.7 3.4
17/05:00pm 20.2 15.3 18.1 88 1.3 SE 41 50 22 27 1020.6 1020.5 3.2
17/04:30pm 20.3 14.8 17.7 85 1.6 ESE 43 54 23 29 1020.3 1020.2 2.8
17/04:00pm 20.2 14.7 17.6 85 1.6 SE 43 52 23 28 1020.2 1020.1 2.8
17/03:30pm 20.6 15.1 18.0 85 1.6 SE 44 56 24 30 1019.8 1019.7 2.8
17/03:00pm 19.9 14.3 17.9 88 1.2 ESE 44 59 24 32 1019.5 1019.4 2.6
17/02:30pm 20.6 15.5 17.8 84 1.7 SE 41 54 22 29 1019.7 1019.6 1.2
17/02:00pm 20.4 14.9 18.0 86 1.5 ESE 44 54 24 29 1020.0 1019.9 1.2
17/01:30pm 21.1 15.0 17.5 80 2.2 ESE 46 57 25 31 1019.6 1019.5 0.6

Other Formats:

Comma delimited format used in spreadsheet applications
http://www.bom.gov.au/fwo/IDQ60801/IDQ60801.95591.axf

JavaScript Object Notation format (JSON) in row-major order
http://www.bom.gov.au/fwo/IDQ60801/IDQ60801.95591.json